Česky Dansk Deutsch English Español Suomi Français Magyar Italiano Nederlands norsk Polski Português svenska Türkçe

 

Het Weer

Praha / Ruzyne (Tjechië)

06:30, 23 augustus 2016 (GMT)

NWNNE
WE
SWSSE
Home            
Praha / Ruzyne Liberec Karlovy Vary Dresden-Klotzsche Altenburg Nobitz Hof Grafenwoehr Preschen Oberosterreich / Freistadt Flugplatz Kuemmersruck Cottbus Flugplatz Bayreuth Hohenfels Holzdorf Leipzig-Schkeuditz Brno / Turany Horsching Aus-Afb Linz / Hoersching-Flughafen Krems-Langenlois Wels Wroclaw Ii Zielona Gora Nuernberg

Om een weerknop op uw website of weblog te plaatsen, copieer onderstaande code en plak die in uw pagina. In het eerste vakje staat HTML-code, in het tweede vakje UBB-code.


Add to Google

Details

Wind speed:2 bf, 6 kn, 3.1 m/s, 6.9 miles/h, 11.1 km/h
Wind direction:WSW, 250°
Visibility:Greater than 10000 m, 10 km, 32800 ft, 6.2 miles
Clouds:Ein wenig bewölkt at 4300 ft, 1311 m
Temperature:17°C, 63°F
Dew-point:12°C, 54°F
Atmospheric pressure:1029 hPa, 771.8 mmHg, 30.39 inHg, 1.016 atm
Relative humidity:72.4 %
METAR:LKPR 230630Z 25006KT 9999 FEW043 17/12 Q1029 NOSIG

Snelkoppelingen

Actuele weersinformatie van de hele wereld. Voeg locaties toe met het plus (+) symbool. Deze snelkoppelingen kunnen worden toegevoegd aan Google.

Lid van de Technetium groep

website free tracking
StatCounter NetStat W3C Validator

20-01-2021 02:35:01
astro.technetium.be money.technetium.be phote.technetium.be tafeltennistafel.technetium.be www.ligfiets.net